Time;durP1;ratioP1;P1;durP2;ratioP2;P2;SDS_P1;SDS_P2;PMS_P1;PMS_P2;Temp;Humidity;BMP_temperature;BMP_pressure;BME280_temperature;BME280_humidity;BME280_pressure;Samples;Min_cycle;Max_cycle;Signal;HPM_P1;HPM_P2
2023/10/13 00:01:25;;;;;;;10.10;7.30;;;;;;;8.26;100.00;97625.50;110177;1244;69287;-61
2023/10/13 00:04:10;;;;;;;10.10;7.30;;;;;;;8.24;100.00;97629.11;110171;1244;60574;-61
2023/10/13 00:06:57;;;;;;;11.10;7.60;;;;;;;8.19;100.00;97632.81;110193;1243;60438;-61
2023/10/13 00:09:37;;;;;;;10.00;6.50;;;;;;;8.15;100.00;97636.57;110176;1243;72316;-60
2023/10/13 00:12:23;;;;;;;14.30;7.90;;;;;;;8.11;100.00;97632.08;110170;1243;69120;-60
2023/10/13 00:15:13;;;;;;;9.90;7.40;;;;;;;8.07;100.00;97629.90;110166;1243;69270;-59
2023/10/13 00:17:48;;;;;;;9.80;7.20;;;;;;;8.01;100.00;97633.20;110121;1241;60541;-59
2023/10/13 00:20:35;;;;;;;12.00;7.60;;;;;;;7.94;100.00;97638.46;110184;1244;60463;-60
2023/10/13 00:23:12;;;;;;;13.20;8.10;;;;;;;7.89;100.00;97639.64;110202;1241;72230;-58
2023/10/13 00:26:02;;;;;;;11.60;7.90;;;;;;;7.85;100.00;97635.04;110155;1241;69281;-59
2023/10/13 00:28:48;;;;;;;10.60;7.50;;;;;;;7.81;100.00;97637.84;110164;1241;68708;-60
2023/10/13 00:31:36;;;;;;;11.50;7.50;;;;;;;7.79;100.00;97639.34;110162;1244;60446;-60
2023/10/13 00:34:28;;;;;;;10.20;7.60;;;;;;;7.78;100.00;97642.01;110120;1243;60493;-60
2023/10/13 00:39:47;;;;;;;10.70;7.20;;;;;;;7.82;100.00;97637.60;110157;1243;69127;-60
2023/10/13 00:42:30;;;;;;;10.20;6.60;;;;;;;7.87;100.00;97635.24;110152;1241;69758;-60
2023/10/13 00:45:05;;;;;;;8.60;6.70;;;;;;;7.88;100.00;97637.76;110180;1243;60541;-59
2023/10/13 00:50:14;;;;;;;9.20;6.50;;;;;;;7.89;100.00;97640.84;110137;1241;71518;-58
2023/10/13 00:52:54;;;;;;;8.70;5.90;;;;;;;7.89;100.00;97641.38;110175;1243;69109;-60
2023/10/13 00:55:33;;;;;;;6.70;5.80;;;;;;;7.92;100.00;97645.55;110152;1244;69450;-60
2023/10/13 00:58:07;;;;;;;10.50;5.50;;;;;;;7.93;100.00;97644.78;110166;1244;60497;-59
2023/10/13 01:00:56;;;;;;;8.40;5.70;;;;;;;7.95;100.00;97646.77;110168;1241;60441;-60
2023/10/13 01:03:28;;;;;;;10.20;5.20;;;;;;;7.99;100.00;97647.59;110148;1241;72229;-59
2023/10/13 01:06:03;;;;;;;9.60;6.50;;;;;;;7.99;100.00;97641.48;110120;1241;69405;-59
2023/10/13 01:08:37;;;;;;;8.50;5.40;;;;;;;8.03;100.00;97645.76;110086;1243;69318;-60
2023/10/13 01:11:10;;;;;;;10.80;6.80;;;;;;;8.06;100.00;97646.80;110126;1244;60625;-60
2023/10/13 01:13:51;;;;;;;8.50;6.10;;;;;;;8.07;100.00;97643.45;110154;1244;60453;-60
2023/10/13 01:16:27;;;;;;;7.40;5.20;;;;;;;8.06;100.00;97647.50;110163;1242;70320;-60
2023/10/13 01:19:04;;;;;;;10.50;6.50;;;;;;;8.04;100.00;97645.54;110161;1244;69142;-60
2023/10/13 01:21:37;;;;;;;9.30;6.20;;;;;;;8.02;100.00;97644.26;110084;1243;68342;-59
2023/10/13 01:24:19;;;;;;;8.20;5.20;;;;;;;8.01;100.00;97643.63;110125;1243;60468;-59
2023/10/13 01:26:52;;;;;;;7.20;5.80;;;;;;;8.02;100.00;97646.20;110136;1243;60500;-60
2023/10/13 01:29:28;;;;;;;7.80;5.60;;;;;;;8.03;100.00;97650.93;110101;1244;72037;-60
2023/10/13 01:32:04;;;;;;;8.00;5.90;;;;;;;8.06;100.00;97655.30;110121;1243;69128;-60
2023/10/13 01:34:37;;;;;;;7.30;5.20;;;;;;;8.07;100.00;97656.24;110121;1244;68225;-60
2023/10/13 01:37:16;;;;;;;7.90;5.00;;;;;;;8.10;100.00;97654.56;110149;1241;60522;-60
2023/10/13 01:39:49;;;;;;;9.00;6.60;;;;;;;8.13;100.00;97653.17;110106;1241;60540;-59
2023/10/13 01:42:21;;;;;;;9.60;6.00;;;;;;;8.17;100.00;97657.59;110143;1244;72807;-60
2023/10/13 01:44:58;;;;;;;6.80;4.50;;;;;;;8.19;100.00;97652.82;110135;1241;68921;-60
2023/10/13 01:47:35;;;;;;;6.30;5.00;;;;;;;8.21;100.00;97658.29;110153;1244;68362;-60
2023/10/13 01:50:21;;;;;;;7.20;5.00;;;;;;;8.22;100.00;97660.08;110158;1244;60486;-60
2023/10/13 01:53:28;;;;;;;8.90;5.60;;;;;;;8.23;100.00;97664.20;110176;1242;60870;-60
2023/10/13 01:55:57;;;;;;;6.40;5.20;;;;;;;8.24;100.00;97667.83;110156;1241;71304;-59
2023/10/13 01:58:28;;;;;;;6.40;4.50;;;;;;;8.25;100.00;97666.86;110127;1245;69256;-60
2023/10/13 02:01:07;;;;;;;9.30;6.00;;;;;;;8.26;100.00;97670.28;110188;1241;68540;-61
2023/10/13 02:03:49;;;;;;;6.50;5.00;;;;;;;8.26;100.00;97670.29;110225;1244;60510;-61
2023/10/13 02:06:36;;;;;;;8.30;5.10;;;;;;;8.23;100.00;97663.48;110192;1244;60469;-60
2023/10/13 02:12:25;;;;;;;8.70;5.30;;;;;;;8.19;100.00;97657.86;110133;1242;69093;-60
2023/10/13 02:15:01;;;;;;;8.20;5.40;;;;;;;8.19;100.00;97658.20;110235;1241;67665;-60
2023/10/13 02:17:42;;;;;;;6.30;4.80;;;;;;;8.19;100.00;97652.81;110181;1243;60504;-60
2023/10/13 02:20:18;;;;;;;7.80;5.50;;;;;;;8.21;100.00;97663.48;110151;1244;60455;-60
2023/10/13 02:22:53;;;;;;;9.50;5.30;;;;;;;8.22;100.00;97660.47;110144;1244;72244;-60
2023/10/13 02:25:45;;;;;;;7.10;5.00;;;;;;;8.24;100.00;97659.14;110145;1245;69268;-60
2023/10/13 02:28:21;;;;;;;6.50;4.20;;;;;;;8.28;100.00;97656.95;110180;1242;69111;-60
2023/10/13 02:30:57;;;;;;;6.50;4.90;;;;;;;8.32;100.00;97655.52;110244;1244;60457;-60
2023/10/13 02:33:34;;;;;;;6.90;5.10;;;;;;;8.33;100.00;97651.64;110197;1242;60453;-60
2023/10/13 02:36:05;;;;;;;5.70;4.40;;;;;;;8.34;100.00;97647.59;110198;1241;71799;-60
2023/10/13 02:41:27;;;;;;;7.50;5.20;;;;;;;8.35;100.00;97649.24;110224;1242;69271;-61
2023/10/13 02:44:06;;;;;;;7.90;5.00;;;;;;;8.35;100.00;97652.71;110175;1241;60478;-61
2023/10/13 02:46:40;;;;;;;7.30;4.60;;;;;;;8.35;100.00;97655.46;110247;1242;60501;-61
2023/10/13 02:49:13;;;;;;;5.40;4.30;;;;;;;8.36;100.00;97650.59;110191;1241;72224;-60
2023/10/13 02:51:46;;;;;;;6.00;4.70;;;;;;;8.37;100.00;97650.70;110166;1241;69845;-60
2023/10/13 02:54:19;;;;;;;7.70;4.70;;;;;;;8.40;100.00;97655.71;110124;1242;68176;-60
2023/10/13 02:57:03;;;;;;;7.80;4.70;;;;;;;8.45;100.00;97658.77;110212;1242;60547;-60
2023/10/13 02:59:34;;;;;;;7.40;5.30;;;;;;;8.45;100.00;97658.76;110143;1244;60479;-60
2023/10/13 03:02:30;;;;;;;6.30;4.50;;;;;;;8.45;100.00;97657.20;110141;1241;72218;-59
2023/10/13 03:05:08;;;;;;;7.30;4.30;;;;;;;8.46;100.00;97654.51;110120;1243;69202;-59
2023/10/13 03:07:43;;;;;;;8.40;4.40;;;;;;;8.48;100.00;97650.60;110130;1241;68140;-60
2023/10/13 03:10:15;;;;;;;7.40;4.90;;;;;;;8.49;100.00;97643.95;110126;1241;60509;-59
2023/10/13 03:12:48;;;;;;;6.80;4.50;;;;;;;8.46;100.00;97639.74;110141;1243;60482;-60
2023/10/13 03:15:20;;;;;;;5.70;4.10;;;;;;;8.41;100.00;97641.08;110107;1243;72223;-60
2023/10/13 03:17:54;;;;;;;5.70;4.10;;;;;;;8.39;100.00;97645.40;110160;1243;68634;-59
2023/10/13 03:20:32;;;;;;;6.80;5.30;;;;;;;8.38;100.00;97646.88;110156;1244;68141;-61
2023/10/13 03:23:09;;;;;;;6.50;4.60;;;;;;;8.36;100.00;97644.31;110184;1242;60554;-59
2023/10/13 03:25:42;;;;;;;7.00;5.10;;;;;;;8.36;100.00;97636.15;110189;1241;60523;-60
2023/10/13 03:28:16;;;;;;;8.10;5.60;;;;;;;8.38;100.00;97632.06;110155;1243;71494;-58
2023/10/13 03:30:47;;;;;;;17.30;10.10;;;;;;;8.40;100.00;97632.61;110147;1241;69296;-60
2023/10/13 03:33:25;;;;;;;22.10;14.20;;;;;;;8.42;100.00;97625.23;110104;1241;67377;-60
2023/10/13 03:36:05;;;;;;;17.10;11.90;;;;;;;8.44;100.00;97624.23;110128;1243;60520;-59
2023/10/13 03:38:38;;;;;;;13.80;10.20;;;;;;;8.45;100.00;97618.30;110189;1242;60471;-60
2023/10/13 03:43:51;;;;;;;12.50;8.30;;;;;;;8.43;100.00;97619.42;110143;1241;68524;-59
2023/10/13 03:46:22;;;;;;;10.30;7.80;;;;;;;8.44;100.00;97617.67;110111;1242;68536;-60
2023/10/13 03:49:01;;;;;;;9.40;6.60;;;;;;;8.44;100.00;97617.67;110146;1243;60542;-59
2023/10/13 03:51:31;;;;;;;8.60;6.30;;;;;;;8.45;100.00;97619.70;110195;1244;60566;-60
2023/10/13 03:54:07;;;;;;;10.10;6.80;;;;;;;8.45;100.00;97626.62;110114;1241;72134;-60
2023/10/13 03:56:40;;;;;;;11.80;7.80;;;;;;;8.46;100.00;97629.35;110158;1243;69383;-60
2023/10/13 04:02:11;;;;;;;31.60;25.00;;;;;;;8.50;100.00;97629.45;110119;1241;60500;-60
2023/10/13 04:04:49;;;;;;;19.90;14.00;;;;;;;8.53;100.00;97629.05;110199;1241;60555;-58
2023/10/13 04:15:43;;;;;;;10.80;7.90;;;;;;;8.33;100.00;97644.16;110142;1243;60486;-60
2023/10/13 04:18:33;;;;;;;9.10;6.80;;;;;;;8.32;100.00;97637.60;110157;1241;60517;-59
2023/10/13 04:24:18;;;;;;;;;;;;;;;8.38;100.00;97643.34;109957;1241;69216;-61
2023/10/13 04:27:54;;;;;;;10.90;6.20;;;;;;;8.40;100.00;97648.05;110129;1243;69301;-61
2023/10/13 04:32:28;;;;;;;10.60;7.80;;;;;;;8.41;100.00;97655.33;110160;1243;60524;-61
2023/10/13 04:35:10;;;;;;;10.70;8.30;;;;;;;8.42;100.00;97658.06;110143;1244;72809;-61
2023/10/13 04:40:58;;;;;;;11.60;9.40;;;;;;;8.52;100.00;97665.66;109637;1248;69834;-60
2023/10/13 04:43:51;;;;;;;11.10;7.90;;;;;;;8.57;100.00;97667.42;110117;1242;60588;-62
2023/10/13 04:46:39;;;;;;;11.60;8.00;;;;;;;8.62;100.00;97668.46;110223;1243;60450;-60
2023/10/13 04:49:10;;;;;;;12.70;7.00;;;;;;;8.67;100.00;97672.83;110220;1241;72178;-63
2023/10/13 04:57:23;;;;;;;7.10;5.50;;;;;;;8.82;100.00;97680.99;110131;1244;60529;-60
2023/10/13 05:05:45;;;;;;;12.60;8.50;;;;;;;8.95;100.00;97687.30;109737;1248;69649;-60
2023/10/13 05:50:29;;;;;;;9.30;7.80;;;;;;;9.73;100.00;97753.02;110158;1241;68699;-60
2023/10/13 06:29:28;;;;;;;17.80;11.70;;;;;;;10.56;100.00;97805.33;110126;1244;69024;-61
2023/10/13 06:31:58;;;;;;;;;;;;;;;10.62;100.00;97804.38;110160;1244;69117;-60
2023/10/13 06:34:37;;;;;;;30.10;16.60;;;;;;;10.69;100.00;97798.48;110102;1241;60554;-60
2023/10/13 06:37:22;;;;;;;22.50;15.10;;;;;;;10.77;100.00;97806.21;110145;1241;60549;-60
2023/10/13 06:39:56;;;;;;;20.20;13.60;;;;;;;10.82;100.00;97815.40;110132;1241;72194;-60
2023/10/13 06:42:29;;;;;;;21.80;13.20;;;;;;;10.87;100.00;97820.48;110144;1244;68467;-61
2023/10/13 06:45:00;;;;;;;21.40;13.50;;;;;;;10.93;100.00;97815.55;110116;1244;69750;-61
2023/10/13 06:47:29;;;;;;;19.40;12.80;;;;;;;11.01;100.00;97819.36;110137;1244;60495;-60
2023/10/13 06:49:59;;;;;;;25.80;14.40;;;;;;;11.08;100.00;97819.23;110178;1242;60492;-59
2023/10/13 06:52:29;;;;;;;24.40;15.70;;;;;;;11.13;100.00;97819.76;110187;1242;70821;-59
2023/10/13 06:55:05;;;;;;;24.30;15.70;;;;;;;11.17;100.00;97816.18;110088;1241;69806;-60
2023/10/13 06:57:36;;;;;;;25.30;16.70;;;;;;;11.22;100.00;97813.69;110170;1241;69892;-59
2023/10/13 07:00:08;;;;;;;26.50;17.20;;;;;;;11.31;100.00;97812.92;110154;1244;60908;-61
2023/10/13 07:02:38;;;;;;;20.90;15.50;;;;;;;11.45;100.00;97811.97;110162;1243;60561;-59
2023/10/13 07:05:11;;;;;;;21.40;14.80;;;;;;;11.69;100.00;97812.55;110123;1244;72239;-59
2023/10/13 07:07:40;;;;;;;24.00;14.40;;;;;;;12.07;100.00;97813.65;110127;1243;68146;-59
2023/10/13 07:10:12;;;;;;;20.60;13.30;;;;;;;12.48;100.00;97816.64;110123;1243;69880;-60
2023/10/13 07:12:49;;;;;;;17.50;12.30;;;;;;;12.71;100.00;97815.40;110084;1243;60482;-60
2023/10/13 07:15:19;;;;;;;16.40;10.30;;;;;;;12.88;100.00;97815.16;110139;1243;60534;-59
2023/10/13 07:17:55;;;;;;;15.10;10.30;;;;;;;12.99;100.00;97816.23;110149;1243;72157;-60
2023/10/13 07:23:06;;;;;;;13.50;10.10;;;;;;;13.13;100.00;97823.44;110122;1242;68681;-62
2023/10/13 07:25:37;;;;;;;16.70;9.30;;;;;;;13.22;100.00;97818.91;110143;1243;60515;-61
2023/10/13 07:28:10;;;;;;;11.90;9.30;;;;;;;13.31;100.00;97812.85;110173;1243;60857;-61
2023/10/13 07:31:11;;;;;;;13.00;9.70;;;;;;;13.37;100.00;97817.23;110159;1241;72326;-61
2023/10/13 07:33:41;;;;;;;12.50;9.30;;;;;;;13.45;100.00;97820.60;110154;1243;69625;-64
2023/10/13 07:36:34;;;;;;;12.00;8.70;;;;;;;13.50;100.00;97822.49;110134;1243;69388;-62
2023/10/13 07:41:55;;;;;;;14.00;9.30;;;;;;;13.41;100.00;97829.03;110216;1244;60552;-59
2023/10/13 07:44:31;;;;;;;12.20;8.60;;;;;;;13.41;100.00;97834.10;110133;1244;71640;-59
2023/10/13 07:47:03;;;;;;;11.80;8.10;;;;;;;13.41;100.00;97836.14;110217;1243;69644;-60
2023/10/13 07:49:37;;;;;;;10.60;7.30;;;;;;;13.41;100.00;97835.84;110233;1243;69299;-60
2023/10/13 07:55:19;;;;;;;13.10;9.00;;;;;;;13.22;100.00;97853.05;110149;1244;60495;-60
2023/10/13 07:57:56;;;;;;;13.00;7.70;;;;;;;13.13;100.00;97874.17;110141;1244;72163;-60
2023/10/13 08:00:46;;;;;;;11.50;7.90;;;;;;;13.00;100.00;97882.88;110203;1244;69370;-60
2023/10/13 08:05:58;;;;;;;13.00;7.90;;;;;;;12.88;100.00;97879.91;110091;1244;60554;-60
2023/10/13 08:08:37;;;;;;;10.90;7.00;;;;;;;12.82;100.00;97881.58;110135;1243;60486;-62
2023/10/13 08:11:24;;;;;;;8.80;7.50;;;;;;;12.81;100.00;97880.13;110131;1244;72204;-60
2023/10/13 08:13:59;;;;;;;10.00;7.40;;;;;;;12.81;100.00;97878.00;110160;1244;69776;-60
2023/10/13 08:16:53;;;;;;;15.40;8.90;;;;;;;12.82;100.00;97869.73;110166;1243;68274;-60
2023/10/13 08:19:27;;;;;;;13.80;10.30;;;;;;;12.83;100.00;97871.67;110138;1244;60556;-61
2023/10/13 08:21:59;;;;;;;15.60;12.00;;;;;;;12.93;100.00;97866.62;110191;1242;60426;-61
2023/10/13 08:37:32;;;;;;;18.20;12.10;;;;;;;13.41;100.00;97857.54;110161;1244;73101;-60
2023/10/13 08:43:08;;;;;;;12.60;10.60;;;;;;;13.85;100.00;97853.04;110073;1244;69617;-61
2023/10/13 08:48:13;;;;;;;14.80;9.50;;;;;;;14.25;100.00;97854.06;110107;1244;60482;-60
2023/10/13 08:56:33;;;;;;;14.60;8.20;;;;;;;14.82;100.00;97845.95;110090;1243;68534;-59
2023/10/13 09:01:48;;;;;;;12.50;7.40;;;;;;;15.19;100.00;97852.59;110148;1243;60437;-59
2023/10/13 09:09:42;;;;;;;7.60;5.90;;;;;;;15.50;100.00;97861.07;109570;1243;730033;-60
2023/10/13 09:17:54;;;;;;;10.40;6.30;;;;;;;15.74;100.00;97849.71;110099;1244;71676;-61
2023/10/13 09:23:24;;;;;;;9.50;8.00;;;;;;;15.71;100.00;97840.33;110122;1241;69311;-60
2023/10/13 09:25:57;;;;;;;9.80;7.40;;;;;;;15.61;100.00;97842.36;110137;1241;60507;-61
2023/10/13 09:28:31;;;;;;;9.60;6.10;;;;;;;15.61;100.00;97843.23;110135;1241;60514;-59
2023/10/13 09:31:00;;;;;;;11.00;6.50;;;;;;;15.69;100.00;97843.24;110158;1242;72050;-60
2023/10/13 09:33:32;;;;;;;8.50;7.00;;;;;;;15.86;100.00;97847.98;110147;1244;69713;-60
2023/10/13 09:36:06;;;;;;;8.80;6.50;;;;;;;16.01;100.00;97849.25;110157;1243;69955;-60
2023/10/13 09:38:40;;;;;;;8.90;6.80;;;;;;;16.11;100.00;97852.11;110072;1244;60627;-60
2023/10/13 09:41:26;;;;;;;8.00;6.00;;;;;;;16.13;100.00;97852.45;110143;1243;60546;-60
2023/10/13 09:43:57;;;;;;;7.70;5.90;;;;;;;16.24;100.00;97854.96;110135;1244;71428;-59
2023/10/13 09:46:30;;;;;;;7.80;5.50;;;;;;;16.33;100.00;97851.91;110148;1242;69622;-59
2023/10/13 09:49:14;;;;;;;8.50;6.80;;;;;;;16.46;99.91;97849.97;110118;1243;69273;-59
2023/10/13 09:51:45;;;;;;;8.30;6.00;;;;;;;16.49;98.97;97851.71;110108;1243;60474;-60
2023/10/13 09:54:26;;;;;;;7.20;5.80;;;;;;;16.57;99.54;97850.45;110129;1243;60524;-61
2023/10/13 09:57:17;;;;;;;6.20;4.40;;;;;;;16.69;99.56;97846.52;110154;1243;72888;-62
2023/10/13 09:59:53;;;;;;;6.10;4.70;;;;;;;16.75;98.24;97844.04;110160;1242;69833;-61
2023/10/13 10:02:25;;;;;;;5.20;4.30;;;;;;;16.87;98.05;97847.91;110140;1243;69721;-61
2023/10/13 10:05:12;;;;;;;6.10;4.30;;;;;;;16.98;97.49;97847.40;110120;1245;60569;-61
2023/10/13 10:07:43;;;;;;;5.50;4.40;;;;;;;17.05;96.33;97847.14;110097;1243;60492;-60
2023/10/13 10:10:22;;;;;;;6.10;4.40;;;;;;;17.04;96.06;97848.75;110161;1243;71477;-60
2023/10/13 10:13:05;;;;;;;5.10;3.70;;;;;;;17.09;95.55;97846.47;110128;1241;69828;-60
2023/10/13 10:15:43;;;;;;;7.40;3.60;;;;;;;17.08;94.49;97842.97;110146;1243;69868;-59
2023/10/13 10:18:22;;;;;;;6.00;4.10;;;;;;;17.15;94.50;97839.64;110166;1241;60500;-60
2023/10/13 10:20:52;;;;;;;5.60;3.70;;;;;;;17.24;93.18;97835.85;110172;1244;60442;-61
2023/10/13 10:23:28;;;;;;;6.60;3.70;;;;;;;17.28;91.60;97836.30;110173;1243;72225;-61
2023/10/13 10:26:09;;;;;;;5.50;3.90;;;;;;;17.48;91.11;97834.13;110140;1243;69803;-61
2023/10/13 10:28:41;;;;;;;5.20;3.40;;;;;;;17.70;90.62;97832.75;110117;1243;69085;-61
2023/10/13 10:31:12;;;;;;;4.70;3.50;;;;;;;17.91;91.08;97827.57;110148;1241;60495;-60
2023/10/13 10:33:42;;;;;;;4.90;3.70;;;;;;;18.20;90.88;97831.27;110121;1242;60548;-60
2023/10/13 10:36:14;;;;;;;4.10;3.10;;;;;;;18.56;86.79;97831.15;110142;1243;72670;-60
2023/10/13 10:39:04;;;;;;;6.10;4.50;;;;;;;18.84;83.69;97825.34;110176;1243;69243;-60
2023/10/13 10:44:23;;;;;;;5.80;3.60;;;;;;;19.48;79.30;97814.80;110149;1244;60513;-60
2023/10/13 10:46:57;;;;;;;5.50;4.00;;;;;;;19.82;75.78;97813.80;110146;1249;60480;-60
2023/10/13 10:49:30;;;;;;;7.10;4.40;;;;;;;20.18;75.66;97816.23;110143;1244;72143;-60
2023/10/13 10:52:07;;;;;;;4.30;3.30;;;;;;;20.97;77.04;97814.43;110129;1241;69757;-60
2023/10/13 10:54:43;;;;;;;6.30;4.50;;;;;;;21.77;70.65;97809.36;110145;1241;69297;-61
2023/10/13 10:57:17;;;;;;;7.10;3.90;;;;;;;22.75;67.43;97806.62;110162;1244;60444;-60
2023/10/13 10:59:52;;;;;;;6.30;3.60;;;;;;;23.27;70.11;97803.33;110194;1244;60446;-60
2023/10/13 11:02:31;;;;;;;5.60;3.70;;;;;;;23.64;68.83;97799.13;110167;1243;72235;-60
2023/10/13 11:05:00;;;;;;;5.80;4.20;;;;;;;23.25;60.03;97789.89;110129;1243;69854;-58
2023/10/13 11:07:31;;;;;;;5.10;3.50;;;;;;;23.47;60.39;97786.73;110129;1242;69608;-59
2023/10/13 11:10:27;;;;;;;4.70;3.40;;;;;;;23.98;63.70;97793.80;110078;1243;60551;-60
2023/10/13 11:13:13;;;;;;;5.70;3.70;;;;;;;23.78;58.80;97794.12;110151;1245;60551;-58
2023/10/13 11:15:46;;;;;;;6.00;3.70;;;;;;;23.55;59.71;97791.52;110144;1243;72808;-59
2023/10/13 11:18:21;;;;;;;4.50;3.30;;;;;;;23.98;58.38;97789.86;110151;1244;69147;-60
2023/10/13 11:20:56;;;;;;;5.50;3.20;;;;;;;24.75;60.11;97788.50;110094;1244;70260;-60
2023/10/13 11:23:25;;;;;;;5.90;3.50;;;;;;;25.50;56.50;97788.11;110077;1243;60630;-60
2023/10/13 11:25:59;;;;;;;5.70;3.60;;;;;;;25.76;52.92;97785.25;110148;1244;60550;-60
2023/10/13 11:28:29;;;;;;;5.70;3.30;;;;;;;26.30;51.01;97787.90;110156;1242;70333;-60
2023/10/13 11:30:59;;;;;;;7.00;4.50;;;;;;;26.77;48.96;97785.55;110065;1243;69786;-60
2023/10/13 11:33:29;;;;;;;6.00;4.30;;;;;;;27.71;51.25;97780.02;110180;1242;68561;-60
2023/10/13 11:36:03;;;;;;;6.90;3.90;;;;;;;28.52;48.57;97783.70;110115;1244;60506;-61
2023/10/13 11:38:49;;;;;;;7.10;4.50;;;;;;;28.32;45.07;97775.61;110111;1241;60583;-59
2023/10/13 11:41:19;;;;;;;8.10;5.10;;;;;;;28.72;44.08;97770.20;110128;1244;72179;-59
2023/10/13 11:49:58;;;;;;;6.60;5.00;;;;;;;31.14;42.81;97766.30;110132;1246;60505;-60
2023/10/13 11:52:32;;;;;;;6.00;4.60;;;;;;;31.41;41.82;97764.08;110084;1243;60496;-59
2023/10/13 11:54:54;;;;;;;6.30;4.40;;;;;;;31.31;39.36;97761.75;110102;1244;72772;-59
2023/10/13 11:57:24;;;;;;;5.70;4.10;;;;;;;31.26;39.72;97759.19;110058;1244;68598;-61
2023/10/13 11:59:55;;;;;;;4.80;3.90;;;;;;;31.16;38.49;97757.08;110088;1244;69768;-59
2023/10/13 12:04:57;;;;;;;5.80;4.00;;;;;;;31.32;37.49;97755.42;110117;1244;60441;-59
2023/10/13 12:07:45;;;;;;;7.60;4.10;;;;;;;31.42;38.69;97755.66;110139;1243;72795;-59
2023/10/13 12:10:33;;;;;;;6.30;3.90;;;;;;;31.14;38.26;97754.19;110151;1242;68518;-59
2023/10/13 12:13:05;;;;;;;6.40;4.40;;;;;;;30.00;39.82;97751.55;110164;1244;69344;-61
2023/10/13 12:15:48;;;;;;;6.50;4.20;;;;;;;30.71;39.62;97752.45;110173;1240;60460;-61
2023/10/13 12:18:19;;;;;;;4.80;3.70;;;;;;;31.15;38.48;97753.90;110145;1241;60570;-60
2023/10/13 12:20:49;;;;;;;5.20;3.60;;;;;;;30.67;37.93;97750.43;110129;1244;72806;-60
2023/10/13 12:23:20;;;;;;;6.20;4.00;;;;;;;30.00;38.88;97742.83;110178;1244;69191;-59
2023/10/13 12:26:00;;;;;;;4.80;3.70;;;;;;;29.35;40.87;97744.06;110088;1242;68369;-61
2023/10/13 12:28:31;;;;;;;6.00;3.40;;;;;;;30.16;40.12;97743.34;110110;1244;60598;-61
2023/10/13 12:31:08;;;;;;;5.00;2.90;;;;;;;30.16;38.04;97736.98;110167;1243;60474;-60
2023/10/13 12:33:37;;;;;;;4.40;3.40;;;;;;;30.48;38.81;97736.88;110163;1242;71173;-60
2023/10/13 12:36:09;;;;;;;4.60;3.20;;;;;;;31.02;38.46;97732.61;110212;1244;69762;-61
2023/10/13 12:49:49;;;;;;;4.50;2.80;;;;;;;29.23;39.29;97734.02;110172;1243;69665;-62
2023/10/13 12:52:31;;;;;;;5.60;3.50;;;;;;;28.76;39.46;97738.92;109925;1247;69888;-61
2023/10/13 12:55:06;;;;;;;6.30;3.60;;;;;;;27.92;40.12;97736.98;110149;1243;60555;-61
2023/10/13 12:57:42;;;;;;;7.00;3.80;;;;;;;27.34;41.17;97735.77;110114;1242;60498;-60
2023/10/13 13:00:25;;;;;;;6.80;4.00;;;;;;;26.55;42.80;97736.65;110160;1243;72440;-62
2023/10/13 13:02:55;;;;;;;5.50;3.20;;;;;;;26.06;43.61;97721.77;110166;1242;69190;-60
2023/10/13 13:05:29;;;;;;;5.70;3.80;;;;;;;25.82;45.20;97720.27;110171;1244;69686;-61
2023/10/13 13:07:58;;;;;;;6.50;4.40;;;;;;;25.53;46.50;97720.32;110135;1244;60928;-61
2023/10/13 13:10:37;;;;;;;6.60;3.80;;;;;;;25.39;46.90;97719.77;110178;1241;60552;-61
2023/10/13 13:13:06;;;;;;;5.90;4.10;;;;;;;25.18;48.04;97723.63;110148;1242;73242;-61
2023/10/13 13:15:35;;;;;;;4.70;3.50;;;;;;;25.30;47.56;97720.10;110105;1243;69827;-60
2023/10/13 13:18:11;;;;;;;6.00;3.30;;;;;;;25.64;46.70;97720.27;110131;1241;69225;-61
2023/10/13 13:20:52;;;;;;;5.20;3.40;;;;;;;26.21;45.90;97718.86;110166;1244;60932;-61
2023/10/13 13:23:25;;;;;;;5.70;3.60;;;;;;;27.09;44.40;97716.23;110149;1243;60538;-60
2023/10/13 13:25:56;;;;;;;4.70;3.40;;;;;;;27.49;43.98;97711.98;110128;1241;72499;-60
2023/10/13 13:28:28;;;;;;;5.40;3.80;;;;;;;27.49;43.77;97709.17;110102;1244;69855;-61
2023/10/13 13:30:59;;;;;;;5.90;3.50;;;;;;;27.11;45.25;97713.27;110123;1244;69869;-61
2023/10/13 13:33:33;;;;;;;6.20;4.10;;;;;;;27.36;43.86;97707.81;110124;1244;60518;-61
2023/10/13 13:36:04;;;;;;;4.40;3.50;;;;;;;28.02;43.26;97712.64;110114;1243;60470;-60
2023/10/13 13:38:33;;;;;;;5.20;3.40;;;;;;;28.68;42.35;97714.27;110139;1244;72842;-61
2023/10/13 13:41:03;;;;;;;5.00;3.60;;;;;;;29.21;41.55;97711.78;110139;1244;69653;-60
2023/10/13 13:43:37;;;;;;;5.00;3.30;;;;;;;29.68;41.39;97703.86;110094;1246;68539;-60
2023/10/13 13:46:10;;;;;;;6.30;3.60;;;;;;;30.01;39.57;97703.42;110113;1242;60557;-60
2023/10/13 13:48:43;;;;;;;5.40;4.00;;;;;;;29.74;38.47;97706.50;110121;1242;60520;-61
2023/10/13 13:51:19;;;;;;;6.30;3.20;;;;;;;29.56;38.70;97703.78;109989;1247;72329;-60
2023/10/13 13:53:49;;;;;;;5.70;3.40;;;;;;;30.08;39.51;97706.08;110126;1244;69330;-60
2023/10/13 13:56:19;;;;;;;5.10;3.40;;;;;;;30.24;38.98;97701.89;110116;1241;69700;-60
2023/10/13 13:59:07;;;;;;;6.40;3.60;;;;;;;30.21;38.64;97699.27;110151;1243;60567;-60
2023/10/13 14:01:37;;;;;;;5.40;3.50;;;;;;;30.22;38.43;97698.38;110164;1244;60604;-59
2023/10/13 14:04:06;;;;;;;5.70;3.70;;;;;;;30.28;38.52;97693.16;110132;1244;72804;-60
2023/10/13 14:06:37;;;;;;;5.80;3.30;;;;;;;30.25;38.02;97693.58;110160;1243;69824;-62
2023/10/13 14:09:32;;;;;;;4.80;3.40;;;;;;;30.27;37.59;97693.30;110143;1244;68230;-60
2023/10/13 14:14:55;;;;;;;5.60;3.50;;;;;;;30.20;37.71;97695.55;110132;1245;60490;-59
2023/10/13 14:17:35;;;;;;;7.60;3.60;;;;;;;30.00;38.29;97694.93;110124;1242;72034;-60
2023/10/13 14:20:14;;;;;;;5.20;3.70;;;;;;;29.81;37.86;97690.48;110152;1244;69049;-60
2023/10/13 14:22:48;;;;;;;5.80;3.80;;;;;;;29.37;38.26;97689.91;110104;1241;68861;-60
2023/10/13 14:25:18;;;;;;;4.80;3.40;;;;;;;28.86;39.57;97693.86;110124;1241;60561;-60
2023/10/13 14:27:48;;;;;;;4.70;3.30;;;;;;;28.70;39.60;97696.97;110150;1244;60550;-60
2023/10/13 14:30:19;;;;;;;6.20;3.70;;;;;;;28.77;39.97;97689.50;110131;1244;72280;-59
2023/10/13 14:32:49;;;;;;;4.30;3.30;;;;;;;28.83;39.47;97690.19;110139;1244;69412;-60
2023/10/13 14:35:18;;;;;;;7.00;3.60;;;;;;;28.43;40.20;97702.37;110129;1243;69140;-60
2023/10/13 14:37:48;;;;;;;5.30;3.40;;;;;;;27.94;41.22;97703.38;110073;1243;60504;-60
2023/10/13 14:40:21;;;;;;;4.40;3.50;;;;;;;27.89;41.44;97701.63;110089;1244;60484;-62
2023/10/13 14:42:50;;;;;;;6.10;3.30;;;;;;;27.35;41.44;97696.56;110115;1244;72759;-60
2023/10/13 14:45:19;;;;;;;;;;;;;;;26.68;43.34;97698.86;110127;1246;69640;-60
2023/10/13 14:47:52;;;;;;;5.50;3.40;;;;;;;26.45;44.57;97699.27;110127;1243;69277;-61
2023/10/13 14:50:21;;;;;;;7.10;3.80;;;;;;;26.12;47.39;97698.16;110093;1242;60543;-60
2023/10/13 14:52:51;;;;;;;;;;;;;;;25.99;47.53;97694.39;110148;1244;60605;-61
2023/10/13 14:55:21;;;;;;;7.10;3.60;;;;;;;25.62;48.11;97695.64;110157;1242;72185;-61
2023/10/13 14:57:51;;;;;;;5.40;3.50;;;;;;;24.92;50.28;97694.66;110136;1244;69691;-60
2023/10/13 15:00:26;;;;;;;5.40;3.70;;;;;;;24.15;53.35;97701.40;110066;1244;69108;-59
2023/10/13 15:02:55;;;;;;;4.90;3.80;;;;;;;23.72;54.01;97705.32;110122;1244;60553;-62
2023/10/13 15:05:25;;;;;;;5.20;3.70;;;;;;;23.46;54.93;97703.34;110170;1243;60572;-59
2023/10/13 15:07:55;;;;;;;;;;;;;;;23.26;56.25;97700.90;110136;1244;71527;-62
2023/10/13 15:10:26;;;;;;;5.40;4.10;;;;;;;23.08;56.91;97701.85;110122;1243;69196;-61
2023/10/13 15:12:59;;;;;;;7.50;5.30;;;;;;;22.87;58.55;97703.21;110087;1245;68542;-60
2023/10/13 15:15:30;;;;;;;11.60;6.90;;;;;;;22.61;59.49;97704.55;110073;1242;60474;-60
2023/10/13 15:18:00;;;;;;;13.20;9.10;;;;;;;22.26;59.59;97704.73;110076;1244;60564;-60
2023/10/13 15:20:30;;;;;;;16.40;9.70;;;;;;;21.77;62.31;97705.23;110133;1244;72748;-60
2023/10/13 15:22:59;;;;;;;17.40;10.60;;;;;;;21.38;64.17;97706.09;110148;1243;68612;-59